sensor_id;sensor_type;location;lat;lon;timestamp;temperature;humidity
66343;DHT22;53144;51.524;5.080;2023-05-07T00:01:45;13.48;99.41
66343;DHT22;53144;51.524;5.080;2023-05-07T00:04:10;13.54;99.52
66343;DHT22;53144;51.524;5.080;2023-05-07T00:06:36;13.55;99.53
66343;DHT22;53144;51.524;5.080;2023-05-07T00:09:01;13.52;99.45
66343;DHT22;53144;51.524;5.080;2023-05-07T00:11:27;13.57;99.48
66343;DHT22;53144;51.524;5.080;2023-05-07T00:13:53;13.54;99.59
66343;DHT22;53144;51.524;5.080;2023-05-07T00:16:18;13.57;99.38
66343;DHT22;53144;51.524;5.080;2023-05-07T00:18:44;13.57;99.78
66343;DHT22;53144;51.524;5.080;2023-05-07T00:21:10;13.57;99.60
66343;DHT22;53144;51.524;5.080;2023-05-07T00:23:36;13.65;99.53
66343;DHT22;53144;51.524;5.080;2023-05-07T00:26:01;13.66;99.54
66343;DHT22;53144;51.524;5.080;2023-05-07T00:28:27;13.72;99.54
66343;DHT22;53144;51.524;5.080;2023-05-07T00:30:52;13.79;99.49
66343;DHT22;53144;51.524;5.080;2023-05-07T00:33:18;13.76;99.48
66343;DHT22;53144;51.524;5.080;2023-05-07T00:35:44;13.79;99.36
66343;DHT22;53144;51.524;5.080;2023-05-07T00:38:09;13.87;99.19
66343;DHT22;53144;51.524;5.080;2023-05-07T00:40:35;13.83;99.24
66343;DHT22;53144;51.524;5.080;2023-05-07T00:43:00;13.99;99.01
66343;DHT22;53144;51.524;5.080;2023-05-07T00:45:29;14.06;98.44
66343;DHT22;53144;51.524;5.080;2023-05-07T00:47:56;14.09;98.13
66343;DHT22;53144;51.524;5.080;2023-05-07T00:50:22;13.96;98.58
66343;DHT22;53144;51.524;5.080;2023-05-07T00:52:48;14.00;98.30
66343;DHT22;53144;51.524;5.080;2023-05-07T00:55:14;14.00;98.23
66343;DHT22;53144;51.524;5.080;2023-05-07T00:57:40;13.99;98.12
66343;DHT22;53144;51.524;5.080;2023-05-07T01:00:07;13.93;98.61
66343;DHT22;53144;51.524;5.080;2023-05-07T01:02:38;13.86;98.60
66343;DHT22;53144;51.524;5.080;2023-05-07T01:05:05;13.85;98.78
66343;DHT22;53144;51.524;5.080;2023-05-07T01:07:33;13.85;99.16
66343;DHT22;53144;51.524;5.080;2023-05-07T01:10:00;13.78;99.53
66343;DHT22;53144;51.524;5.080;2023-05-07T01:12:26;13.75;99.25
66343;DHT22;53144;51.524;5.080;2023-05-07T01:14:53;13.75;99.38
66343;DHT22;53144;51.524;5.080;2023-05-07T01:17:18;13.73;99.35
66343;DHT22;53144;51.524;5.080;2023-05-07T01:19:44;13.71;99.47
66343;DHT22;53144;51.524;5.080;2023-05-07T01:22:10;13.72;99.65
66343;DHT22;53144;51.524;5.080;2023-05-07T01:24:41;13.72;99.40
66343;DHT22;53144;51.524;5.080;2023-05-07T01:27:06;13.73;99.33
66343;DHT22;53144;51.524;5.080;2023-05-07T01:29:32;13.80;98.91
66343;DHT22;53144;51.524;5.080;2023-05-07T01:31:59;13.79;98.94
66343;DHT22;53144;51.524;5.080;2023-05-07T01:34:27;13.73;98.90
66343;DHT22;53144;51.524;5.080;2023-05-07T01:36:54;13.69;98.98
66343;DHT22;53144;51.524;5.080;2023-05-07T01:39:22;13.62;98.88
66343;DHT22;53144;51.524;5.080;2023-05-07T01:41:48;13.61;98.97
66343;DHT22;53144;51.524;5.080;2023-05-07T01:44:15;13.58;99.03
66343;DHT22;53144;51.524;5.080;2023-05-07T01:46:41;13.55;99.13
66343;DHT22;53144;51.524;5.080;2023-05-07T01:49:06;13.48;99.16
66343;DHT22;53144;51.524;5.080;2023-05-07T01:51:32;13.49;99.22
66343;DHT22;53144;51.524;5.080;2023-05-07T01:53:58;13.44;99.36
66343;DHT22;53144;51.524;5.080;2023-05-07T01:56:24;13.42;99.69
66343;DHT22;53144;51.524;5.080;2023-05-07T01:58:50;13.45;99.59
66343;DHT22;53144;51.524;5.080;2023-05-07T02:01:16;13.42;99.65
66343;DHT22;53144;51.524;5.080;2023-05-07T02:03:42;13.42;99.73
66343;DHT22;53144;51.524;5.080;2023-05-07T02:06:07;13.41;99.99
66343;DHT22;53144;51.524;5.080;2023-05-07T02:08:32;13.44;99.87
66343;DHT22;53144;51.524;5.080;2023-05-07T02:10:58;13.47;99.77
66343;DHT22;53144;51.524;5.080;2023-05-07T02:13:23;13.51;99.82
66343;DHT22;53144;51.524;5.080;2023-05-07T02:15:49;13.52;99.69
66343;DHT22;53144;51.524;5.080;2023-05-07T02:18:16;13.52;99.63
66343;DHT22;53144;51.524;5.080;2023-05-07T02:20:42;13.52;99.54
66343;DHT22;53144;51.524;5.080;2023-05-07T02:23:08;13.52;99.47
66343;DHT22;53144;51.524;5.080;2023-05-07T02:25:33;13.52;99.58
66343;DHT22;53144;51.524;5.080;2023-05-07T02:27:58;13.52;99.50
66343;DHT22;53144;51.524;5.080;2023-05-07T02:30:24;13.52;99.79
66343;DHT22;53144;51.524;5.080;2023-05-07T02:32:50;13.65;99.58
66343;DHT22;53144;51.524;5.080;2023-05-07T02:35:16;13.71;99.28
66343;DHT22;53144;51.524;5.080;2023-05-07T02:37:41;13.65;99.33
66343;DHT22;53144;51.524;5.080;2023-05-07T02:40:07;13.59;99.44
66343;DHT22;53144;51.524;5.080;2023-05-07T02:42:33;13.59;99.49
66343;DHT22;53144;51.524;5.080;2023-05-07T02:44:58;13.51;99.52
66343;DHT22;53144;51.524;5.080;2023-05-07T02:47:24;13.52;99.55
66343;DHT22;53144;51.524;5.080;2023-05-07T02:49:52;13.48;99.51
66343;DHT22;53144;51.524;5.080;2023-05-07T02:52:18;13.48;99.55
66343;DHT22;53144;51.524;5.080;2023-05-07T02:54:43;13.40;99.75
66343;DHT22;53144;51.524;5.080;2023-05-07T02:57:08;13.38;99.80
66343;DHT22;53144;51.524;5.080;2023-05-07T02:59:34;13.35;99.79
66343;DHT22;53144;51.524;5.080;2023-05-07T03:01:59;13.34;99.99
66343;DHT22;53144;51.524;5.080;2023-05-07T03:04:24;13.31;99.97
66343;DHT22;53144;51.524;5.080;2023-05-07T03:06:50;13.32;99.99
66343;DHT22;53144;51.524;5.080;2023-05-07T03:09:15;13.35;99.99
66343;DHT22;53144;51.524;5.080;2023-05-07T03:11:41;13.37;99.95
66343;DHT22;53144;51.524;5.080;2023-05-07T03:14:06;13.42;99.96
66343;DHT22;53144;51.524;5.080;2023-05-07T03:16:32;13.37;99.99
66343;DHT22;53144;51.524;5.080;2023-05-07T03:18:57;13.38;99.99
66343;DHT22;53144;51.524;5.080;2023-05-07T03:21:23;13.31;99.99
66343;DHT22;53144;51.524;5.080;2023-05-07T03:23:48;13.27;99.99
66343;DHT22;53144;51.524;5.080;2023-05-07T03:26:14;13.27;99.99
66343;DHT22;53144;51.524;5.080;2023-05-07T03:28:39;13.27;99.99
66343;DHT22;53144;51.524;5.080;2023-05-07T03:31:04;13.27;99.99
66343;DHT22;53144;51.524;5.080;2023-05-07T03:33:33;13.28;99.99
66343;DHT22;53144;51.524;5.080;2023-05-07T03:35:58;13.30;99.99
66343;DHT22;53144;51.524;5.080;2023-05-07T03:38:24;13.21;99.99
66343;DHT22;53144;51.524;5.080;2023-05-07T03:40:49;13.30;99.99
66343;DHT22;53144;51.524;5.080;2023-05-07T03:43:15;13.30;99.99
66343;DHT22;53144;51.524;5.080;2023-05-07T03:45:40;13.25;99.99
66343;DHT22;53144;51.524;5.080;2023-05-07T03:48:05;13.28;99.99
66343;DHT22;53144;51.524;5.080;2023-05-07T03:50:31;13.25;99.99
66343;DHT22;53144;51.524;5.080;2023-05-07T03:52:56;13.22;99.99
66343;DHT22;53144;51.524;5.080;2023-05-07T03:55:21;13.24;99.99
66343;DHT22;53144;51.524;5.080;2023-05-07T03:57:48;13.27;99.99
66343;DHT22;53144;51.524;5.080;2023-05-07T04:00:13;13.28;99.99
66343;DHT22;53144;51.524;5.080;2023-05-07T04:02:39;13.24;99.99
66343;DHT22;53144;51.524;5.080;2023-05-07T04:05:04;13.28;99.99
66343;DHT22;53144;51.524;5.080;2023-05-07T04:07:30;13.27;99.99
66343;DHT22;53144;51.524;5.080;2023-05-07T04:09:55;13.30;99.99
66343;DHT22;53144;51.524;5.080;2023-05-07T04:12:21;13.30;99.99
66343;DHT22;53144;51.524;5.080;2023-05-07T04:14:46;13.32;99.99
66343;DHT22;53144;51.524;5.080;2023-05-07T04:17:11;13.30;99.99
66343;DHT22;53144;51.524;5.080;2023-05-07T04:19:37;13.22;99.99
66343;DHT22;53144;51.524;5.080;2023-05-07T04:22:02;13.22;99.99
66343;DHT22;53144;51.524;5.080;2023-05-07T04:24:31;13.24;99.99
66343;DHT22;53144;51.524;5.080;2023-05-07T04:26:56;13.28;99.99
66343;DHT22;53144;51.524;5.080;2023-05-07T04:29:23;13.28;99.99
66343;DHT22;53144;51.524;5.080;2023-05-07T04:31:48;13.37;99.99
66343;DHT22;53144;51.524;5.080;2023-05-07T04:34:14;13.37;99.99
66343;DHT22;53144;51.524;5.080;2023-05-07T04:36:39;13.37;99.99
66343;DHT22;53144;51.524;5.080;2023-05-07T04:39:05;13.35;99.99
66343;DHT22;53144;51.524;5.080;2023-05-07T04:41:31;13.45;99.99
66343;DHT22;53144;51.524;5.080;2023-05-07T04:43:57;13.51;99.99
66343;DHT22;53144;51.524;5.080;2023-05-07T04:46:24;13.52;99.99
66343;DHT22;53144;51.524;5.080;2023-05-07T04:48:50;13.52;99.99
66343;DHT22;53144;51.524;5.080;2023-05-07T04:51:15;13.52;99.99
66343;DHT22;53144;51.524;5.080;2023-05-07T04:53:40;13.61;99.99
66343;DHT22;53144;51.524;5.080;2023-05-07T04:56:06;13.55;99.99
66343;DHT22;53144;51.524;5.080;2023-05-07T04:58:32;13.58;99.99
66343;DHT22;53144;51.524;5.080;2023-05-07T05:00:58;13.62;99.99
66343;DHT22;53144;51.524;5.080;2023-05-07T05:03:23;13.69;99.99
66343;DHT22;53144;51.524;5.080;2023-05-07T05:05:50;13.75;99.99
66343;DHT22;53144;51.524;5.080;2023-05-07T05:08:16;13.83;99.99
66343;DHT22;53144;51.524;5.080;2023-05-07T05:10:42;13.90;99.99
66343;DHT22;53144;51.524;5.080;2023-05-07T05:13:08;13.93;99.99
66343;DHT22;53144;51.524;5.080;2023-05-07T05:15:34;14.03;99.99
66343;DHT22;53144;51.524;5.080;2023-05-07T05:17:59;14.05;99.92
66343;DHT22;53144;51.524;5.080;2023-05-07T05:20:25;14.08;99.83
66343;DHT22;53144;51.524;5.080;2023-05-07T05:22:51;14.09;99.76
66343;DHT22;53144;51.524;5.080;2023-05-07T05:25:16;14.19;99.68
66343;DHT22;53144;51.524;5.080;2023-05-07T05:27:41;14.19;99.55
66343;DHT22;53144;51.524;5.080;2023-05-07T05:30:07;14.24;99.64
66343;DHT22;53144;51.524;5.080;2023-05-07T05:32:32;14.24;99.56
66343;DHT22;53144;51.524;5.080;2023-05-07T05:34:58;14.29;99.58
66343;DHT22;53144;51.524;5.080;2023-05-07T05:37:23;14.33;99.63
66343;DHT22;53144;51.524;5.080;2023-05-07T05:39:48;14.37;99.65
66343;DHT22;53144;51.524;5.080;2023-05-07T05:42:14;14.38;99.65
66343;DHT22;53144;51.524;5.080;2023-05-07T05:44:39;14.40;99.74
66343;DHT22;53144;51.524;5.080;2023-05-07T05:47:05;14.45;99.63
66343;DHT22;53144;51.524;5.080;2023-05-07T05:49:30;14.52;99.40
66343;DHT22;53144;51.524;5.080;2023-05-07T05:51:55;14.60;99.41
66343;DHT22;53144;51.524;5.080;2023-05-07T05:54:21;14.60;99.37
66343;DHT22;53144;51.524;5.080;2023-05-07T05:56:46;14.64;99.37
66343;DHT22;53144;51.524;5.080;2023-05-07T05:59:12;14.68;99.38
66343;DHT22;53144;51.524;5.080;2023-05-07T06:01:38;14.68;99.25
66343;DHT22;53144;51.524;5.080;2023-05-07T06:04:04;14.79;99.25
66343;DHT22;53144;51.524;5.080;2023-05-07T06:06:29;14.89;98.78
66343;DHT22;53144;51.524;5.080;2023-05-07T06:08:56;14.88;98.46
66343;DHT22;53144;51.524;5.080;2023-05-07T06:11:21;14.91;98.41
66343;DHT22;53144;51.524;5.080;2023-05-07T06:13:46;14.92;98.46
66343;DHT22;53144;51.524;5.080;2023-05-07T06:16:12;14.93;98.51
66343;DHT22;53144;51.524;5.080;2023-05-07T06:18:37;14.93;98.60
66343;DHT22;53144;51.524;5.080;2023-05-07T06:21:03;15.00;98.38
66343;DHT22;53144;51.524;5.080;2023-05-07T06:23:28;15.06;98.37
66343;DHT22;53144;51.524;5.080;2023-05-07T06:25:54;15.15;98.03
66343;DHT22;53144;51.524;5.080;2023-05-07T06:28:19;15.09;97.84
66343;DHT22;53144;51.524;5.080;2023-05-07T06:30:45;15.08;98.08
66343;DHT22;53144;51.524;5.080;2023-05-07T06:33:10;15.02;98.23
66343;DHT22;53144;51.524;5.080;2023-05-07T06:35:36;15.02;98.36
66343;DHT22;53144;51.524;5.080;2023-05-07T06:38:01;15.06;98.35
66343;DHT22;53144;51.524;5.080;2023-05-07T06:40:27;15.06;98.33
66343;DHT22;53144;51.524;5.080;2023-05-07T06:42:52;15.16;98.24
66343;DHT22;53144;51.524;5.080;2023-05-07T06:45:19;15.09;98.07
66343;DHT22;53144;51.524;5.080;2023-05-07T06:47:44;15.18;98.43
66343;DHT22;53144;51.524;5.080;2023-05-07T06:50:10;15.18;98.61
66343;DHT22;53144;51.524;5.080;2023-05-07T06:52:35;15.18;98.43
66343;DHT22;53144;51.524;5.080;2023-05-07T06:55:01;15.22;98.47
66343;DHT22;53144;51.524;5.080;2023-05-07T06:57:26;15.26;98.09
66343;DHT22;53144;51.524;5.080;2023-05-07T06:59:52;15.32;97.94
66343;DHT22;53144;51.524;5.080;2023-05-07T07:02:17;15.35;98.10
66343;DHT22;53144;51.524;5.080;2023-05-07T07:04:42;15.39;98.04
66343;DHT22;53144;51.524;5.080;2023-05-07T07:07:08;15.50;97.46
66343;DHT22;53144;51.524;5.080;2023-05-07T07:09:33;15.56;97.45
66343;DHT22;53144;51.524;5.080;2023-05-07T07:11:58;15.56;97.65
66343;DHT22;53144;51.524;5.080;2023-05-07T07:14:24;15.68;96.72
66343;DHT22;53144;51.524;5.080;2023-05-07T07:16:49;15.83;95.91
66343;DHT22;53144;51.524;5.080;2023-05-07T07:19:15;15.85;96.97
66343;DHT22;53144;51.524;5.080;2023-05-07T07:21:41;15.94;96.25
66343;DHT22;53144;51.524;5.080;2023-05-07T07:24:06;15.98;96.33
66343;DHT22;53144;51.524;5.080;2023-05-07T07:26:32;16.05;96.41
66343;DHT22;53144;51.524;5.080;2023-05-07T07:28:57;16.09;96.24
66343;DHT22;53144;51.524;5.080;2023-05-07T07:31:23;16.19;96.12
66343;DHT22;53144;51.524;5.080;2023-05-07T07:33:48;16.21;95.61
66343;DHT22;53144;51.524;5.080;2023-05-07T07:36:15;16.28;95.53
66343;DHT22;53144;51.524;5.080;2023-05-07T07:38:41;16.29;94.96
66343;DHT22;53144;51.524;5.080;2023-05-07T07:41:08;16.39;95.63
66343;DHT22;53144;51.524;5.080;2023-05-07T07:43:33;16.43;95.51
66343;DHT22;53144;51.524;5.080;2023-05-07T07:45:59;16.55;94.85
66343;DHT22;53144;51.524;5.080;2023-05-07T07:48:24;16.56;93.35
66343;DHT22;53144;51.524;5.080;2023-05-07T07:50:50;16.64;93.53
66343;DHT22;53144;51.524;5.080;2023-05-07T07:53:19;16.57;94.04
66343;DHT22;53144;51.524;5.080;2023-05-07T07:55:44;16.59;95.04
66343;DHT22;53144;51.524;5.080;2023-05-07T07:58:10;16.69;94.21
66343;DHT22;53144;51.524;5.080;2023-05-07T08:00:36;16.87;93.48
66343;DHT22;53144;51.524;5.080;2023-05-07T08:03:01;16.88;94.11
66343;DHT22;53144;51.524;5.080;2023-05-07T08:05:28;16.88;92.97
66343;DHT22;53144;51.524;5.080;2023-05-07T08:07:53;16.88;92.93
66343;DHT22;53144;51.524;5.080;2023-05-07T08:10:19;16.97;92.59
66343;DHT22;53144;51.524;5.080;2023-05-07T08:12:48;17.03;92.72
66343;DHT22;53144;51.524;5.080;2023-05-07T08:15:14;17.03;92.34
66343;DHT22;53144;51.524;5.080;2023-05-07T08:17:40;17.08;92.48
66343;DHT22;53144;51.524;5.080;2023-05-07T08:20:06;17.15;92.90
66343;DHT22;53144;51.524;5.080;2023-05-07T08:22:31;17.22;92.07
66343;DHT22;53144;51.524;5.080;2023-05-07T08:24:57;17.25;91.45
66343;DHT22;53144;51.524;5.080;2023-05-07T08:27:22;17.28;92.27
66343;DHT22;53144;51.524;5.080;2023-05-07T08:29:48;17.38;91.56
66343;DHT22;53144;51.524;5.080;2023-05-07T08:32:14;17.38;91.08
66343;DHT22;53144;51.524;5.080;2023-05-07T08:34:39;17.39;92.33
66343;DHT22;53144;51.524;5.080;2023-05-07T08:37:05;17.42;91.44
66343;DHT22;53144;51.524;5.080;2023-05-07T08:39:30;17.46;91.15
66343;DHT22;53144;51.524;5.080;2023-05-07T08:41:56;17.52;90.95
66343;DHT22;53144;51.524;5.080;2023-05-07T08:44:26;17.59;91.55
66343;DHT22;53144;51.524;5.080;2023-05-07T08:46:56;17.66;91.16
66343;DHT22;53144;51.524;5.080;2023-05-07T08:49:22;17.79;90.63
66343;DHT22;53144;51.524;5.080;2023-05-07T08:51:47;17.90;89.59
66343;DHT22;53144;51.524;5.080;2023-05-07T08:54:16;17.89;90.47
66343;DHT22;53144;51.524;5.080;2023-05-07T08:56:41;17.73;90.19
66343;DHT22;53144;51.524;5.080;2023-05-07T08:59:07;17.75;90.96
66343;DHT22;53144;51.524;5.080;2023-05-07T09:01:32;17.87;91.10
66343;DHT22;53144;51.524;5.080;2023-05-07T09:04:00;17.65;91.07
66343;DHT22;53144;51.524;5.080;2023-05-07T09:06:26;17.71;90.35
66343;DHT22;53144;51.524;5.080;2023-05-07T09:08:53;17.66;90.25
66343;DHT22;53144;51.524;5.080;2023-05-07T09:11:22;17.83;90.39
66343;DHT22;53144;51.524;5.080;2023-05-07T09:13:53;17.73;90.05
66343;DHT22;53144;51.524;5.080;2023-05-07T09:16:20;17.82;91.34
66343;DHT22;53144;51.524;5.080;2023-05-07T09:18:46;18.00;90.36
66343;DHT22;53144;51.524;5.080;2023-05-07T09:21:16;18.16;90.09
66343;DHT22;53144;51.524;5.080;2023-05-07T09:23:42;18.18;89.06
66343;DHT22;53144;51.524;5.080;2023-05-07T09:26:08;18.31;90.22
66343;DHT22;53144;51.524;5.080;2023-05-07T09:28:43;18.17;89.83
66343;DHT22;53144;51.524;5.080;2023-05-07T09:31:10;18.07;89.86
66343;DHT22;53144;51.524;5.080;2023-05-07T09:33:35;18.14;90.27
66343;DHT22;53144;51.524;5.080;2023-05-07T09:36:08;18.29;89.41
66343;DHT22;53144;51.524;5.080;2023-05-07T09:38:35;18.20;90.23
66343;DHT22;53144;51.524;5.080;2023-05-07T09:41:09;18.30;90.02
66343;DHT22;53144;51.524;5.080;2023-05-07T09:43:36;18.23;90.28
66343;DHT22;53144;51.524;5.080;2023-05-07T09:46:15;18.37;90.26
66343;DHT22;53144;51.524;5.080;2023-05-07T09:48:43;18.50;89.69
66343;DHT22;53144;51.524;5.080;2023-05-07T09:51:28;18.55;89.32
66343;DHT22;53144;51.524;5.080;2023-05-07T09:53:54;18.64;90.54
66343;DHT22;53144;51.524;5.080;2023-05-07T09:56:21;18.87;89.09
66343;DHT22;53144;51.524;5.080;2023-05-07T09:58:47;18.84;87.28
66343;DHT22;53144;51.524;5.080;2023-05-07T10:01:13;19.12;87.08
66343;DHT22;53144;51.524;5.080;2023-05-07T10:03:43;19.33;86.38
66343;DHT22;53144;51.524;5.080;2023-05-07T10:06:09;19.34;86.45
66343;DHT22;53144;51.524;5.080;2023-05-07T10:08:36;19.36;86.94
66343;DHT22;53144;51.524;5.080;2023-05-07T10:11:04;19.41;85.68
66343;DHT22;53144;51.524;5.080;2023-05-07T10:13:32;19.50;85.86
66343;DHT22;53144;51.524;5.080;2023-05-07T10:16:00;19.46;84.41
66343;DHT22;53144;51.524;5.080;2023-05-07T10:18:26;19.46;84.95
66343;DHT22;53144;51.524;5.080;2023-05-07T10:21:07;19.61;83.90
66343;DHT22;53144;51.524;5.080;2023-05-07T10:23:33;19.74;84.29
66343;DHT22;53144;51.524;5.080;2023-05-07T10:26:02;19.92;81.64
66343;DHT22;53144;51.524;5.080;2023-05-07T10:28:31;20.08;83.43
66343;DHT22;53144;51.524;5.080;2023-05-07T10:33:51;20.15;82.53
66343;DHT22;53144;51.524;5.080;2023-05-07T10:36:18;19.89;78.10
66343;DHT22;53144;51.524;5.080;2023-05-07T10:38:44;19.94;79.50
66343;DHT22;53144;51.524;5.080;2023-05-07T10:41:11;19.95;81.50
66343;DHT22;53144;51.524;5.080;2023-05-07T10:43:44;20.08;78.03
66343;DHT22;53144;51.524;5.080;2023-05-07T10:46:11;20.07;80.34
66343;DHT22;53144;51.524;5.080;2023-05-07T10:51:29;19.99;81.56
66343;DHT22;53144;51.524;5.080;2023-05-07T10:56:39;19.78;79.17
66343;DHT22;53144;51.524;5.080;2023-05-07T11:01:56;19.92;79.47
66343;DHT22;53144;51.524;5.080;2023-05-07T11:04:23;19.97;81.73
66343;DHT22;53144;51.524;5.080;2023-05-07T11:17:52;19.67;79.09
66343;DHT22;53144;51.524;5.080;2023-05-07T11:20:18;19.50;81.18
66343;DHT22;53144;51.524;5.080;2023-05-07T11:22:43;19.41;81.19
66343;DHT22;53144;51.524;5.080;2023-05-07T11:25:09;19.39;80.27
66343;DHT22;53144;51.524;5.080;2023-05-07T11:27:34;19.39;80.58
66343;DHT22;53144;51.524;5.080;2023-05-07T11:30:00;19.33;81.41
66343;DHT22;53144;51.524;5.080;2023-05-07T11:32:30;19.58;81.05
66343;DHT22;53144;51.524;5.080;2023-05-07T11:34:57;19.63;79.13
66343;DHT22;53144;51.524;5.080;2023-05-07T11:37:24;19.71;79.66
66343;DHT22;53144;51.524;5.080;2023-05-07T11:39:50;19.78;78.32
66343;DHT22;53144;51.524;5.080;2023-05-07T11:42:30;19.79;79.80
66343;DHT22;53144;51.524;5.080;2023-05-07T11:44:56;19.82;78.80
66343;DHT22;53144;51.524;5.080;2023-05-07T11:47:21;19.87;81.48
66343;DHT22;53144;51.524;5.080;2023-05-07T11:49:51;19.85;80.21
66343;DHT22;53144;51.524;5.080;2023-05-07T11:52:18;19.77;78.33
66343;DHT22;53144;51.524;5.080;2023-05-07T11:54:54;19.84;80.03
66343;DHT22;53144;51.524;5.080;2023-05-07T11:57:20;19.99;76.58
66343;DHT22;53144;51.524;5.080;2023-05-07T11:59:46;20.05;76.84
66343;DHT22;53144;51.524;5.080;2023-05-07T12:02:17;19.98;80.45
66343;DHT22;53144;51.524;5.080;2023-05-07T12:04:43;19.92;77.52
66343;DHT22;53144;51.524;5.080;2023-05-07T12:07:12;20.07;77.63
66343;DHT22;53144;51.524;5.080;2023-05-07T12:09:39;20.11;75.07
66343;DHT22;53144;51.524;5.080;2023-05-07T12:12:05;19.82;76.13
66343;DHT22;53144;51.524;5.080;2023-05-07T12:14:30;20.08;77.02
66343;DHT22;53144;51.524;5.080;2023-05-07T12:16:56;19.89;74.93
66343;DHT22;53144;51.524;5.080;2023-05-07T12:19:22;19.87;77.06
66343;DHT22;53144;51.524;5.080;2023-05-07T12:21:48;19.91;77.17
66343;DHT22;53144;51.524;5.080;2023-05-07T12:24:16;19.97;77.36
66343;DHT22;53144;51.524;5.080;2023-05-07T12:26:43;19.70;77.07
66343;DHT22;53144;51.524;5.080;2023-05-07T12:29:08;19.67;77.90
66343;DHT22;53144;51.524;5.080;2023-05-07T12:31:34;19.56;78.92
66343;DHT22;53144;51.524;5.080;2023-05-07T12:33:59;19.51;79.89
66343;DHT22;53144;51.524;5.080;2023-05-07T12:36:24;19.43;79.87
66343;DHT22;53144;51.524;5.080;2023-05-07T12:38:51;19.27;80.09
66343;DHT22;53144;51.524;5.080;2023-05-07T12:41:16;19.18;80.21
66343;DHT22;53144;51.524;5.080;2023-05-07T12:43:46;19.20;80.66
66343;DHT22;53144;51.524;5.080;2023-05-07T12:46:12;19.22;80.43
66343;DHT22;53144;51.524;5.080;2023-05-07T12:48:44;19.24;80.41
66343;DHT22;53144;51.524;5.080;2023-05-07T12:51:11;19.19;81.13
66343;DHT22;53144;51.524;5.080;2023-05-07T12:53:42;19.06;81.34
66343;DHT22;53144;51.524;5.080;2023-05-07T12:56:08;19.10;81.79
66343;DHT22;53144;51.524;5.080;2023-05-07T12:58:35;19.08;81.60
66343;DHT22;53144;51.524;5.080;2023-05-07T13:01:04;18.95;82.10
66343;DHT22;53144;51.524;5.080;2023-05-07T13:03:33;18.78;84.15
66343;DHT22;53144;51.524;5.080;2023-05-07T13:06:01;18.81;84.52
66343;DHT22;53144;51.524;5.080;2023-05-07T13:08:28;18.71;86.91
66343;DHT22;53144;51.524;5.080;2023-05-07T13:10:54;18.57;86.15
66343;DHT22;53144;51.524;5.080;2023-05-07T13:13:20;18.48;89.34
66343;DHT22;53144;51.524;5.080;2023-05-07T13:15:47;18.26;87.70
66343;DHT22;53144;51.524;5.080;2023-05-07T13:18:12;18.37;89.52
66343;DHT22;53144;51.524;5.080;2023-05-07T13:20:38;18.52;88.96
66343;DHT22;53144;51.524;5.080;2023-05-07T13:23:03;18.87;88.88
66343;DHT22;53144;51.524;5.080;2023-05-07T13:25:30;19.08;90.09
66343;DHT22;53144;51.524;5.080;2023-05-07T13:27:58;19.20;91.23
66343;DHT22;53144;51.524;5.080;2023-05-07T13:30:24;19.30;89.36
66343;DHT22;53144;51.524;5.080;2023-05-07T13:32:49;19.16;89.51
66343;DHT22;53144;51.524;5.080;2023-05-07T13:35:16;19.05;89.93
66343;DHT22;53144;51.524;5.080;2023-05-07T13:37:41;19.33;89.16
66343;DHT22;53144;51.524;5.080;2023-05-07T13:40:07;19.24;88.56
66343;DHT22;53144;51.524;5.080;2023-05-07T13:42:33;19.36;89.79
66343;DHT22;53144;51.524;5.080;2023-05-07T13:44:58;19.51;89.69
66343;DHT22;53144;51.524;5.080;2023-05-07T13:47:23;19.46;87.76
66343;DHT22;53144;51.524;5.080;2023-05-07T13:49:49;19.36;87.40
66343;DHT22;53144;51.524;5.080;2023-05-07T13:52:16;19.53;87.87
66343;DHT22;53144;51.524;5.080;2023-05-07T13:54:41;19.61;84.74
66343;DHT22;53144;51.524;5.080;2023-05-07T13:57:07;19.75;84.86
66343;DHT22;53144;51.524;5.080;2023-05-07T13:59:32;19.92;84.84
66343;DHT22;53144;51.524;5.080;2023-05-07T14:01:58;19.97;84.88
66343;DHT22;53144;51.524;5.080;2023-05-07T14:04:23;20.21;84.41
66343;DHT22;53144;51.524;5.080;2023-05-07T14:06:49;20.47;84.53
66343;DHT22;53144;51.524;5.080;2023-05-07T14:09:14;20.49;86.34
66343;DHT22;53144;51.524;5.080;2023-05-07T14:11:39;20.32;85.72
66343;DHT22;53144;51.524;5.080;2023-05-07T14:14:05;20.33;85.20
66343;DHT22;53144;51.524;5.080;2023-05-07T14:16:30;20.29;84.28
66343;DHT22;53144;51.524;5.080;2023-05-07T14:18:56;20.32;85.51
66343;DHT22;53144;51.524;5.080;2023-05-07T14:21:21;20.35;85.66
66343;DHT22;53144;51.524;5.080;2023-05-07T14:23:46;20.04;85.45
66343;DHT22;53144;51.524;5.080;2023-05-07T14:26:12;19.81;86.24
66343;DHT22;53144;51.524;5.080;2023-05-07T14:28:38;19.99;87.18
66343;DHT22;53144;51.524;5.080;2023-05-07T14:31:04;20.05;86.50
66343;DHT22;53144;51.524;5.080;2023-05-07T14:33:31;20.14;84.30
66343;DHT22;53144;51.524;5.080;2023-05-07T14:35:56;19.61;84.98
66343;DHT22;53144;51.524;5.080;2023-05-07T14:38:22;19.51;86.13
66343;DHT22;53144;51.524;5.080;2023-05-07T14:40:47;19.77;85.00
66343;DHT22;53144;51.524;5.080;2023-05-07T14:43:13;19.91;84.92
66343;DHT22;53144;51.524;5.080;2023-05-07T14:45:38;19.71;82.58
66343;DHT22;53144;51.524;5.080;2023-05-07T14:48:04;19.73;79.60
66343;DHT22;53144;51.524;5.080;2023-05-07T14:50:29;19.81;81.20
66343;DHT22;53144;51.524;5.080;2023-05-07T14:52:55;19.78;82.90
66343;DHT22;53144;51.524;5.080;2023-05-07T14:55:20;19.92;84.91
66343;DHT22;53144;51.524;5.080;2023-05-07T14:57:46;20.12;84.76
66343;DHT22;53144;51.524;5.080;2023-05-07T15:00:12;20.14;84.07
66343;DHT22;53144;51.524;5.080;2023-05-07T15:02:38;20.28;83.23
66343;DHT22;53144;51.524;5.080;2023-05-07T15:05:03;20.30;81.61
66343;DHT22;53144;51.524;5.080;2023-05-07T15:07:29;20.29;83.28
66343;DHT22;53144;51.524;5.080;2023-05-07T15:09:54;20.22;77.33
66343;DHT22;53144;51.524;5.080;2023-05-07T15:12:20;20.37;76.63
66343;DHT22;53144;51.524;5.080;2023-05-07T15:14:45;20.45;75.30
66343;DHT22;53144;51.524;5.080;2023-05-07T15:17:11;20.05;74.14
66343;DHT22;53144;51.524;5.080;2023-05-07T15:19:36;20.11;73.77
66343;DHT22;53144;51.524;5.080;2023-05-07T15:22:01;20.35;74.96
66343;DHT22;53144;51.524;5.080;2023-05-07T15:24:31;20.42;74.03
66343;DHT22;53144;51.524;5.080;2023-05-07T15:26:56;20.22;72.63
66343;DHT22;53144;51.524;5.080;2023-05-07T15:29:23;20.26;73.41
66343;DHT22;53144;51.524;5.080;2023-05-07T15:31:48;20.30;74.77
66343;DHT22;53144;51.524;5.080;2023-05-07T15:34:14;20.24;74.70
66343;DHT22;53144;51.524;5.080;2023-05-07T15:36:42;20.25;75.92
66343;DHT22;53144;51.524;5.080;2023-05-07T15:39:07;20.26;75.19
66343;DHT22;53144;51.524;5.080;2023-05-07T15:41:33;20.07;73.33
66343;DHT22;53144;51.524;5.080;2023-05-07T15:43:59;19.98;74.79
66343;DHT22;53144;51.524;5.080;2023-05-07T15:46:25;20.01;76.21